sensor_id;sensor_type;location;lat;lon;timestamp;pressure;altitude;pressure_sealevel;temperature;humidity
7297;BME280;40758;54.038;11.684;2023-06-10T00:02:02;101785.00;;;9.28;83.43
7297;BME280;40758;54.038;11.684;2023-06-10T00:04:30;101785.94;;;9.20;83.70
7297;BME280;40758;54.038;11.684;2023-06-10T00:06:57;101789.03;;;9.17;83.71
7297;BME280;40758;54.038;11.684;2023-06-10T00:09:23;101787.06;;;9.26;84.00
7297;BME280;40758;54.038;11.684;2023-06-10T00:11:50;101785.94;;;9.20;84.01
7297;BME280;40758;54.038;11.684;2023-06-10T00:14:17;101788.63;;;9.20;84.28
7297;BME280;40758;54.038;11.684;2023-06-10T00:16:44;101786.41;;;9.24;84.38
7297;BME280;40758;54.038;11.684;2023-06-10T00:19:12;101787.59;;;9.21;84.33
7297;BME280;40758;54.038;11.684;2023-06-10T00:21:40;101793.31;;;9.26;84.75
7297;BME280;40758;54.038;11.684;2023-06-10T00:24:08;101792.66;;;9.24;84.56
7297;BME280;40758;54.038;11.684;2023-06-10T00:26:40;101799.41;;;9.28;84.92
7297;BME280;40758;54.038;11.684;2023-06-10T00:29:08;101792.75;;;9.31;84.86
7297;BME280;40758;54.038;11.684;2023-06-10T00:31:36;101792.97;;;9.29;84.81
7297;BME280;40758;54.038;11.684;2023-06-10T00:34:06;101789.31;;;9.22;84.68
7297;BME280;40758;54.038;11.684;2023-06-10T00:36:34;101797.97;;;9.32;84.96
7297;BME280;40758;54.038;11.684;2023-06-10T00:39:02;101796.69;;;9.28;84.95
7297;BME280;40758;54.038;11.684;2023-06-10T00:41:30;101790.59;;;9.41;85.82
7297;BME280;40758;54.038;11.684;2023-06-10T00:43:57;101793.13;;;9.43;85.38
7297;BME280;40758;54.038;11.684;2023-06-10T00:46:24;101789.38;;;9.44;85.56
7297;BME280;40758;54.038;11.684;2023-06-10T00:48:53;101800.41;;;9.42;85.27
7297;BME280;40758;54.038;11.684;2023-06-10T00:51:20;101787.97;;;9.33;85.29
7297;BME280;40758;54.038;11.684;2023-06-10T00:53:48;101786.66;;;9.44;85.73
7297;BME280;40758;54.038;11.684;2023-06-10T00:56:16;101800.91;;;9.46;85.59
7297;BME280;40758;54.038;11.684;2023-06-10T00:58:43;101793.53;;;9.40;85.63
7297;BME280;40758;54.038;11.684;2023-06-10T01:01:10;101798.53;;;9.43;85.60
7297;BME280;40758;54.038;11.684;2023-06-10T01:03:40;101798.47;;;9.51;85.98
7297;BME280;40758;54.038;11.684;2023-06-10T01:06:16;101793.13;;;9.57;85.89
7297;BME280;40758;54.038;11.684;2023-06-10T01:08:58;101789.19;;;9.60;85.79
7297;BME280;40758;54.038;11.684;2023-06-10T01:11:34;101786.88;;;9.57;85.70
7297;BME280;40758;54.038;11.684;2023-06-10T01:14:05;101785.63;;;9.59;85.83
7297;BME280;40758;54.038;11.684;2023-06-10T01:16:35;101777.97;;;9.63;85.59
7297;BME280;40758;54.038;11.684;2023-06-10T01:19:05;101779.09;;;9.54;85.58
7297;BME280;40758;54.038;11.684;2023-06-10T01:21:33;101775.34;;;9.55;85.85
7297;BME280;40758;54.038;11.684;2023-06-10T01:24:02;101773.38;;;9.49;85.67
7297;BME280;40758;54.038;11.684;2023-06-10T01:26:30;101763.03;;;9.38;85.60
7297;BME280;40758;54.038;11.684;2023-06-10T01:29:11;101771.44;;;9.43;85.85
7297;BME280;40758;54.038;11.684;2023-06-10T01:31:51;101779.78;;;9.41;85.96
7297;BME280;40758;54.038;11.684;2023-06-10T01:34:23;101773.59;;;9.32;86.02
7297;BME280;40758;54.038;11.684;2023-06-10T01:36:52;101781.53;;;9.49;86.17
7297;BME280;40758;54.038;11.684;2023-06-10T01:39:23;101779.47;;;9.51;86.19
7297;BME280;40758;54.038;11.684;2023-06-10T01:41:52;101779.16;;;9.60;86.48
7297;BME280;40758;54.038;11.684;2023-06-10T01:44:22;101774.50;;;9.54;86.14
7297;BME280;40758;54.038;11.684;2023-06-10T01:46:49;101781.16;;;9.52;86.06
7297;BME280;40758;54.038;11.684;2023-06-10T01:49:16;101779.47;;;9.51;86.20
7297;BME280;40758;54.038;11.684;2023-06-10T01:51:43;101776.31;;;9.47;86.16
7297;BME280;40758;54.038;11.684;2023-06-10T01:54:09;101775.81;;;9.44;86.05
7297;BME280;40758;54.038;11.684;2023-06-10T01:56:36;101769.75;;;9.42;86.38
7297;BME280;40758;54.038;11.684;2023-06-10T01:59:05;101776.84;;;9.43;86.46
7297;BME280;40758;54.038;11.684;2023-06-10T02:01:33;101775.66;;;9.45;86.50
7297;BME280;40758;54.038;11.684;2023-06-10T02:04:00;101770.41;;;9.58;86.86
7297;BME280;40758;54.038;11.684;2023-06-10T02:06:27;101767.69;;;9.58;86.59
7297;BME280;40758;54.038;11.684;2023-06-10T02:08:53;101767.00;;;9.56;86.73
7297;BME280;40758;54.038;11.684;2023-06-10T02:11:20;101765.03;;;9.65;86.72
7297;BME280;40758;54.038;11.684;2023-06-10T02:13:47;101758.31;;;9.61;86.54
7297;BME280;40758;54.038;11.684;2023-06-10T02:16:13;101766.72;;;9.66;86.62
7297;BME280;40758;54.038;11.684;2023-06-10T02:18:41;101775.19;;;9.78;86.59
7297;BME280;40758;54.038;11.684;2023-06-10T02:21:09;101775.41;;;9.76;86.50
7297;BME280;40758;54.038;11.684;2023-06-10T02:23:37;101771.38;;;9.72;86.37
7297;BME280;40758;54.038;11.684;2023-06-10T02:26:04;101781.78;;;9.69;86.49
7297;BME280;40758;54.038;11.684;2023-06-10T02:28:31;101778.88;;;9.70;86.67
7297;BME280;40758;54.038;11.684;2023-06-10T02:30:57;101771.38;;;9.72;86.96
7297;BME280;40758;54.038;11.684;2023-06-10T02:33:25;101776.59;;;9.74;86.65
7297;BME280;40758;54.038;11.684;2023-06-10T02:35:52;101768.94;;;9.77;86.58
7297;BME280;40758;54.038;11.684;2023-06-10T02:38:18;101765.59;;;9.75;86.78
7297;BME280;40758;54.038;11.684;2023-06-10T02:40:45;101774.72;;;9.89;86.58
7297;BME280;40758;54.038;11.684;2023-06-10T02:43:12;101772.97;;;10.03;86.78
7297;BME280;40758;54.038;11.684;2023-06-10T02:45:38;101764.81;;;10.03;86.68
7297;BME280;40758;54.038;11.684;2023-06-10T02:48:06;101772.34;;;10.01;86.16
7297;BME280;40758;54.038;11.684;2023-06-10T02:50:33;101773.94;;;9.95;86.10
7297;BME280;40758;54.038;11.684;2023-06-10T02:53:00;101759.84;;;9.85;86.26
7297;BME280;40758;54.038;11.684;2023-06-10T02:55:26;101770.03;;;9.98;86.41
7297;BME280;40758;54.038;11.684;2023-06-10T02:57:54;101760.16;;;9.97;86.18
7297;BME280;40758;54.038;11.684;2023-06-10T03:00:21;101769.88;;;10.06;86.34
7297;BME280;40758;54.038;11.684;2023-06-10T03:02:48;101768.84;;;10.07;86.25
7297;BME280;40758;54.038;11.684;2023-06-10T03:05:15;101762.78;;;10.05;86.17
7297;BME280;40758;54.038;11.684;2023-06-10T03:07:43;101761.88;;;9.98;86.08
7297;BME280;40758;54.038;11.684;2023-06-10T03:10:10;101769.50;;;10.09;86.19
7297;BME280;40758;54.038;11.684;2023-06-10T03:12:37;101758.81;;;10.07;85.91
7297;BME280;40758;54.038;11.684;2023-06-10T03:15:04;101762.66;;;10.13;86.17
7297;BME280;40758;54.038;11.684;2023-06-10T03:17:31;101766.09;;;10.22;86.18
7297;BME280;40758;54.038;11.684;2023-06-10T03:19:58;101763.72;;;10.33;85.93
7297;BME280;40758;54.038;11.684;2023-06-10T03:22:25;101763.97;;;10.38;85.86
7297;BME280;40758;54.038;11.684;2023-06-10T03:24:52;101748.84;;;10.29;85.62
7297;BME280;40758;54.038;11.684;2023-06-10T03:27:19;101766.44;;;10.33;85.56
7297;BME280;40758;54.038;11.684;2023-06-10T03:29:46;101760.59;;;10.36;85.71
7297;BME280;40758;54.038;11.684;2023-06-10T03:32:13;101769.16;;;10.33;85.48
7297;BME280;40758;54.038;11.684;2023-06-10T03:34:40;101767.06;;;10.35;85.56
7297;BME280;40758;54.038;11.684;2023-06-10T03:37:11;101761.38;;;10.30;85.47
7297;BME280;40758;54.038;11.684;2023-06-10T03:39:38;101765.34;;;10.28;85.42
7297;BME280;40758;54.038;11.684;2023-06-10T03:42:05;101766.19;;;10.28;85.17
7297;BME280;40758;54.038;11.684;2023-06-10T03:44:32;101761.63;;;10.35;85.52
7297;BME280;40758;54.038;11.684;2023-06-10T03:46:58;101748.84;;;10.51;85.88
7297;BME280;40758;54.038;11.684;2023-06-10T03:49:26;101762.56;;;10.71;85.27
7297;BME280;40758;54.038;11.684;2023-06-10T03:51:55;101765.56;;;10.82;85.18
7297;BME280;40758;54.038;11.684;2023-06-10T03:54:22;101760.38;;;10.87;84.95
7297;BME280;40758;54.038;11.684;2023-06-10T03:56:49;101766.69;;;10.95;84.51
7297;BME280;40758;54.038;11.684;2023-06-10T03:59:16;101768.38;;;10.96;84.74
7297;BME280;40758;54.038;11.684;2023-06-10T04:01:43;101766.00;;;11.14;84.09
7297;BME280;40758;54.038;11.684;2023-06-10T04:04:14;101748.88;;;11.20;83.87
7297;BME280;40758;54.038;11.684;2023-06-10T04:06:43;101766.72;;;11.36;83.80
7297;BME280;40758;54.038;11.684;2023-06-10T04:09:12;101756.66;;;11.30;83.40
7297;BME280;40758;54.038;11.684;2023-06-10T04:11:39;101768.44;;;11.37;83.59
7297;BME280;40758;54.038;11.684;2023-06-10T04:14:08;101769.28;;;11.44;83.44
7297;BME280;40758;54.038;11.684;2023-06-10T04:16:34;101760.47;;;11.42;83.52
7297;BME280;40758;54.038;11.684;2023-06-10T04:19:02;101771.22;;;11.57;82.87
7297;BME280;40758;54.038;11.684;2023-06-10T04:21:29;101775.84;;;11.63;83.02
7297;BME280;40758;54.038;11.684;2023-06-10T04:23:56;101770.44;;;11.69;82.82
7297;BME280;40758;54.038;11.684;2023-06-10T04:26:22;101766.72;;;11.77;82.84
7297;BME280;40758;54.038;11.684;2023-06-10T04:28:49;101778.06;;;11.87;82.08
7297;BME280;40758;54.038;11.684;2023-06-10T04:31:16;101774.75;;;11.98;82.20
7297;BME280;40758;54.038;11.684;2023-06-10T04:33:44;101778.97;;;12.08;81.72
7297;BME280;40758;54.038;11.684;2023-06-10T04:36:10;101778.13;;;12.14;81.79
7297;BME280;40758;54.038;11.684;2023-06-10T04:38:38;101764.53;;;12.34;81.55
7297;BME280;40758;54.038;11.684;2023-06-10T04:41:05;101777.72;;;13.23;80.56
7297;BME280;40758;54.038;11.684;2023-06-10T04:43:31;101776.28;;;13.72;79.78
7297;BME280;40758;54.038;11.684;2023-06-10T04:45:58;101770.59;;;14.11;78.14
7297;BME280;40758;54.038;11.684;2023-06-10T04:48:26;101778.47;;;13.95;77.58
7297;BME280;40758;54.038;11.684;2023-06-10T04:50:53;101775.91;;;14.31;77.53
7297;BME280;40758;54.038;11.684;2023-06-10T04:53:20;101778.56;;;14.45;76.38
7297;BME280;40758;54.038;11.684;2023-06-10T04:55:47;101769.34;;;14.71;74.84
7297;BME280;40758;54.038;11.684;2023-06-10T04:58:14;101765.22;;;15.05;73.26
7297;BME280;40758;54.038;11.684;2023-06-10T05:00:41;101769.44;;;15.62;73.01
7297;BME280;40758;54.038;11.684;2023-06-10T05:03:09;101776.00;;;15.91;71.68
7297;BME280;40758;54.038;11.684;2023-06-10T05:05:36;101772.19;;;16.22;70.70
7297;BME280;40758;54.038;11.684;2023-06-10T05:08:02;101770.09;;;15.94;69.66
7297;BME280;40758;54.038;11.684;2023-06-10T05:10:32;101773.94;;;16.17;68.99
7297;BME280;40758;54.038;11.684;2023-06-10T05:13:00;101780.91;;;16.73;68.62
7297;BME280;40758;54.038;11.684;2023-06-10T05:15:27;101781.47;;;17.45;68.46
7297;BME280;40758;54.038;11.684;2023-06-10T05:17:56;101786.88;;;17.28;66.20
7297;BME280;40758;54.038;11.684;2023-06-10T05:20:24;101786.88;;;17.28;65.73
7297;BME280;40758;54.038;11.684;2023-06-10T05:22:51;101788.66;;;17.35;64.97
7297;BME280;40758;54.038;11.684;2023-06-10T05:25:18;101781.56;;;17.39;64.16
7297;BME280;40758;54.038;11.684;2023-06-10T05:27:45;101783.69;;;17.60;63.84
7297;BME280;40758;54.038;11.684;2023-06-10T05:30:11;101787.78;;;17.58;63.58
7297;BME280;40758;54.038;11.684;2023-06-10T05:32:41;101772.88;;;17.94;63.23
7297;BME280;40758;54.038;11.684;2023-06-10T05:35:09;101776.50;;;18.11;62.39
7297;BME280;40758;54.038;11.684;2023-06-10T05:37:36;101781.44;;;18.43;61.05
7297;BME280;40758;54.038;11.684;2023-06-10T05:40:04;101774.19;;;18.37;60.82
7297;BME280;40758;54.038;11.684;2023-06-10T05:42:31;101777.59;;;18.44;60.32
7297;BME280;40758;54.038;11.684;2023-06-10T05:44:57;101774.38;;;18.64;60.17
7297;BME280;40758;54.038;11.684;2023-06-10T05:47:24;101759.38;;;18.88;60.03
7297;BME280;40758;54.038;11.684;2023-06-10T05:49:51;101776.06;;;18.98;59.56
7297;BME280;40758;54.038;11.684;2023-06-10T05:52:18;101773.03;;;18.66;58.39
7297;BME280;40758;54.038;11.684;2023-06-10T05:54:45;101768.47;;;18.88;59.09
7297;BME280;40758;54.038;11.684;2023-06-10T05:57:12;101774.63;;;18.96;58.33
7297;BME280;40758;54.038;11.684;2023-06-10T05:59:39;101786.63;;;19.06;57.52
7297;BME280;40758;54.038;11.684;2023-06-10T06:02:06;101783.72;;;19.35;57.85
7297;BME280;40758;54.038;11.684;2023-06-10T06:04:33;101787.13;;;20.08;57.45
7297;BME280;40758;54.038;11.684;2023-06-10T06:07:01;101781.50;;;20.52;56.08
7297;BME280;40758;54.038;11.684;2023-06-10T06:09:27;101776.91;;;20.62;55.36
7297;BME280;40758;54.038;11.684;2023-06-10T06:11:54;101771.94;;;20.59;53.55
7297;BME280;40758;54.038;11.684;2023-06-10T06:14:22;101786.47;;;20.82;53.81
7297;BME280;40758;54.038;11.684;2023-06-10T06:16:48;101772.38;;;20.83;53.57
7297;BME280;40758;54.038;11.684;2023-06-10T06:19:15;101782.72;;;20.66;52.37
7297;BME280;40758;54.038;11.684;2023-06-10T06:21:42;101778.38;;;20.70;54.07
7297;BME280;40758;54.038;11.684;2023-06-10T06:24:09;101780.56;;;20.14;52.32
7297;BME280;40758;54.038;11.684;2023-06-10T06:26:36;101778.59;;;20.68;53.58
7297;BME280;40758;54.038;11.684;2023-06-10T06:29:02;101771.34;;;20.03;52.65
7297;BME280;40758;54.038;11.684;2023-06-10T06:31:30;101781.50;;;20.25;52.24
7297;BME280;40758;54.038;11.684;2023-06-10T06:33:57;101791.50;;;20.31;52.53
7297;BME280;40758;54.038;11.684;2023-06-10T06:36:23;101784.72;;;21.13;53.52
7297;BME280;40758;54.038;11.684;2023-06-10T06:38:50;101785.88;;;21.22;50.87
7297;BME280;40758;54.038;11.684;2023-06-10T06:41:17;101787.91;;;21.32;50.67
7297;BME280;40758;54.038;11.684;2023-06-10T06:43:44;101784.69;;;21.55;50.70
7297;BME280;40758;54.038;11.684;2023-06-10T06:46:10;101780.69;;;21.88;51.16
7297;BME280;40758;54.038;11.684;2023-06-10T06:48:39;101782.28;;;21.79;49.95
7297;BME280;40758;54.038;11.684;2023-06-10T06:51:05;101787.53;;;21.70;49.82
7297;BME280;40758;54.038;11.684;2023-06-10T06:53:32;101783.41;;;21.83;49.50
7297;BME280;40758;54.038;11.684;2023-06-10T06:55:59;101788.06;;;21.67;49.94
7297;BME280;40758;54.038;11.684;2023-06-10T06:58:26;101786.06;;;22.41;50.35
7297;BME280;40758;54.038;11.684;2023-06-10T07:00:53;101788.00;;;22.45;48.36
7297;BME280;40758;54.038;11.684;2023-06-10T07:03:20;101789.38;;;22.27;48.24
7297;BME280;40758;54.038;11.684;2023-06-10T07:05:47;101780.78;;;22.49;49.19
7297;BME280;40758;54.038;11.684;2023-06-10T07:08:14;101790.09;;;21.92;48.51
7297;BME280;40758;54.038;11.684;2023-06-10T07:10:41;101791.03;;;22.59;48.61
7297;BME280;40758;54.038;11.684;2023-06-10T07:13:07;101799.34;;;22.49;47.96
7297;BME280;40758;54.038;11.684;2023-06-10T07:15:34;101794.41;;;22.92;48.86
7297;BME280;40758;54.038;11.684;2023-06-10T07:18:01;101797.41;;;22.85;47.56
7297;BME280;40758;54.038;11.684;2023-06-10T07:20:28;101799.34;;;22.59;47.92
7297;BME280;40758;54.038;11.684;2023-06-10T07:22:54;101796.03;;;22.82;47.19
7297;BME280;40758;54.038;11.684;2023-06-10T07:25:21;101793.38;;;23.57;47.30
7297;BME280;40758;54.038;11.684;2023-06-10T07:27:47;101802.13;;;22.84;46.15
7297;BME280;40758;54.038;11.684;2023-06-10T07:30:14;101793.56;;;22.96;46.74
7297;BME280;40758;54.038;11.684;2023-06-10T07:32:41;101795.72;;;22.84;46.89
7297;BME280;40758;54.038;11.684;2023-06-10T07:35:09;101796.84;;;22.83;47.28
7297;BME280;40758;54.038;11.684;2023-06-10T07:37:39;101796.88;;;22.93;47.49
7297;BME280;40758;54.038;11.684;2023-06-10T07:40:06;101810.44;;;23.00;46.95
7297;BME280;40758;54.038;11.684;2023-06-10T07:42:34;101792.06;;;23.40;47.11
7297;BME280;40758;54.038;11.684;2023-06-10T07:45:02;101804.06;;;22.94;45.93
7297;BME280;40758;54.038;11.684;2023-06-10T07:47:30;101796.66;;;23.75;46.28
7297;BME280;40758;54.038;11.684;2023-06-10T07:49:57;101796.50;;;23.41;45.87
7297;BME280;40758;54.038;11.684;2023-06-10T07:52:24;101797.13;;;23.07;45.85
7297;BME280;40758;54.038;11.684;2023-06-10T07:54:51;101802.66;;;22.61;46.63
7297;BME280;40758;54.038;11.684;2023-06-10T07:57:19;101801.81;;;22.35;47.24
7297;BME280;40758;54.038;11.684;2023-06-10T07:59:45;101805.72;;;22.70;47.61
7297;BME280;40758;54.038;11.684;2023-06-10T08:02:12;101796.50;;;23.41;47.01
7297;BME280;40758;54.038;11.684;2023-06-10T08:04:39;101801.41;;;23.59;46.05
7297;BME280;40758;54.038;11.684;2023-06-10T08:07:05;101802.84;;;23.46;46.40
7297;BME280;40758;54.038;11.684;2023-06-10T08:09:32;101801.53;;;23.23;45.88
7297;BME280;40758;54.038;11.684;2023-06-10T08:11:59;101795.56;;;23.71;45.35
7297;BME280;40758;54.038;11.684;2023-06-10T08:14:26;101786.75;;;24.52;45.20
7297;BME280;40758;54.038;11.684;2023-06-10T08:16:53;101794.69;;;24.30;44.50
7297;BME280;40758;54.038;11.684;2023-06-10T08:19:19;101790.88;;;24.21;43.99
7297;BME280;40758;54.038;11.684;2023-06-10T08:21:46;101795.84;;;23.74;44.02
7297;BME280;40758;54.038;11.684;2023-06-10T08:24:13;101804.91;;;22.69;45.52
7297;BME280;40758;54.038;11.684;2023-06-10T08:26:43;101796.81;;;23.19;47.15
7297;BME280;40758;54.038;11.684;2023-06-10T08:29:11;101797.25;;;23.72;46.09
7297;BME280;40758;54.038;11.684;2023-06-10T08:31:41;101792.31;;;24.52;46.50
7297;BME280;40758;54.038;11.684;2023-06-10T08:34:08;101798.31;;;23.81;45.04
7297;BME280;40758;54.038;11.684;2023-06-10T08:36:35;101790.31;;;24.24;45.65
7297;BME280;40758;54.038;11.684;2023-06-10T08:39:02;101791.22;;;24.53;44.49
7297;BME280;40758;54.038;11.684;2023-06-10T08:41:30;101792.31;;;24.52;44.41
7297;BME280;40758;54.038;11.684;2023-06-10T08:44:08;101799.16;;;24.99;44.33
7297;BME280;40758;54.038;11.684;2023-06-10T08:46:37;101802.97;;;25.03;43.61
7297;BME280;40758;54.038;11.684;2023-06-10T08:49:05;101790.31;;;25.69;43.87
7297;BME280;40758;54.038;11.684;2023-06-10T08:51:35;101800.47;;;26.21;43.04
7297;BME280;40758;54.038;11.684;2023-06-10T08:54:14;101797.00;;;26.30;41.76
7297;BME280;40758;54.038;11.684;2023-06-10T08:56:42;101795.66;;;26.46;41.02
7297;BME280;40758;54.038;11.684;2023-06-10T08:59:10;101799.09;;;26.89;40.90
7297;BME280;40758;54.038;11.684;2023-06-10T09:01:38;101792.94;;;26.41;39.71
7297;BME280;40758;54.038;11.684;2023-06-10T09:04:05;101789.31;;;25.84;41.15
7297;BME280;40758;54.038;11.684;2023-06-10T09:06:32;101796.06;;;25.78;42.43
7297;BME280;40758;54.038;11.684;2023-06-10T09:09:00;101795.25;;;25.96;41.74
7297;BME280;40758;54.038;11.684;2023-06-10T09:11:29;101797.66;;;25.84;42.15
7297;BME280;40758;54.038;11.684;2023-06-10T09:13:56;101799.09;;;26.00;41.92
7297;BME280;40758;54.038;11.684;2023-06-10T09:16:24;101793.66;;;26.65;41.37
7297;BME280;40758;54.038;11.684;2023-06-10T09:18:51;101791.22;;;26.45;40.86
7297;BME280;40758;54.038;11.684;2023-06-10T09:21:22;101800.75;;;26.39;41.26
7297;BME280;40758;54.038;11.684;2023-06-10T09:23:50;101795.47;;;25.81;40.24
7297;BME280;40758;54.038;11.684;2023-06-10T09:26:17;101793.69;;;26.27;40.75
7297;BME280;40758;54.038;11.684;2023-06-10T09:28:50;101799.84;;;26.43;40.26
7297;BME280;40758;54.038;11.684;2023-06-10T09:31:17;101797.19;;;25.77;40.71
7297;BME280;40758;54.038;11.684;2023-06-10T09:33:45;101799.66;;;25.06;41.73
7297;BME280;40758;54.038;11.684;2023-06-10T09:36:21;101792.63;;;25.14;42.03
7297;BME280;40758;54.038;11.684;2023-06-10T09:38:49;101798.78;;;25.35;42.21
7297;BME280;40758;54.038;11.684;2023-06-10T09:41:17;101806.88;;;25.02;41.75
7297;BME280;40758;54.038;11.684;2023-06-10T09:43:45;101797.22;;;24.65;42.11
7297;BME280;40758;54.038;11.684;2023-06-10T09:46:19;101799.31;;;25.13;43.53
7297;BME280;40758;54.038;11.684;2023-06-10T09:48:47;101792.56;;;24.90;42.45
7297;BME280;40758;54.038;11.684;2023-06-10T09:51:14;101799.00;;;25.38;43.81
7297;BME280;40758;54.038;11.684;2023-06-10T09:53:47;101791.38;;;26.16;42.87
7297;BME280;40758;54.038;11.684;2023-06-10T09:56:14;101794.38;;;27.03;42.99
7297;BME280;40758;54.038;11.684;2023-06-10T09:58:41;101785.84;;;27.82;40.69
7297;BME280;40758;54.038;11.684;2023-06-10T10:01:11;101792.47;;;28.36;39.33
7297;BME280;40758;54.038;11.684;2023-06-10T10:03:51;101795.88;;;28.56;37.90
7297;BME280;40758;54.038;11.684;2023-06-10T10:06:18;101800.03;;;27.72;36.49
7297;BME280;40758;54.038;11.684;2023-06-10T10:08:48;101785.34;;;27.80;37.60
7297;BME280;40758;54.038;11.684;2023-06-10T10:11:20;101792.78;;;26.84;37.67
7297;BME280;40758;54.038;11.684;2023-06-10T10:13:50;101798.69;;;26.96;38.41
7297;BME280;40758;54.038;11.684;2023-06-10T10:16:20;101797.53;;;27.29;37.00
7297;BME280;40758;54.038;11.684;2023-06-10T10:19:01;101797.19;;;26.71;37.01
7297;BME280;40758;54.038;11.684;2023-06-10T10:21:37;101794.25;;;26.95;37.41
7297;BME280;40758;54.038;11.684;2023-06-10T10:24:09;101780.13;;;27.05;37.57
7297;BME280;40758;54.038;11.684;2023-06-10T10:26:39;101790.69;;;26.43;38.42
7297;BME280;40758;54.038;11.684;2023-06-10T10:31:51;101782.44;;;26.70;37.89
7297;BME280;40758;54.038;11.684;2023-06-10T10:34:43;101790.84;;;26.51;37.78
7297;BME280;40758;54.038;11.684;2023-06-10T10:37:16;101781.84;;;26.55;38.94
7297;BME280;40758;54.038;11.684;2023-06-10T10:39:44;101789.56;;;26.76;39.53
7297;BME280;40758;54.038;11.684;2023-06-10T10:42:12;101779.38;;;26.53;38.83
7297;BME280;40758;54.038;11.684;2023-06-10T10:44:39;101761.84;;;25.96;40.34
7297;BME280;40758;54.038;11.684;2023-06-10T10:47:10;101781.19;;;26.06;40.08
7297;BME280;40758;54.038;11.684;2023-06-10T10:49:37;101774.00;;;26.38;39.93
7297;BME280;40758;54.038;11.684;2023-06-10T10:52:04;101778.06;;;26.64;40.23
7297;BME280;40758;54.038;11.684;2023-06-10T10:54:37;101780.59;;;26.79;39.24
7297;BME280;40758;54.038;11.684;2023-06-10T10:57:11;101779.97;;;26.83;39.23
7297;BME280;40758;54.038;11.684;2023-06-10T10:59:57;101785.63;;;27.24;39.15
7297;BME280;40758;54.038;11.684;2023-06-10T11:05:04;101787.78;;;27.13;37.08
7297;BME280;40758;54.038;11.684;2023-06-10T11:07:32;101768.16;;;26.91;38.23
7297;BME280;40758;54.038;11.684;2023-06-10T11:10:05;101778.94;;;27.25;38.27
7297;BME280;40758;54.038;11.684;2023-06-10T11:12:59;101783.69;;;27.24;37.71
7297;BME280;40758;54.038;11.684;2023-06-10T11:15:28;101781.84;;;27.75;37.66
7297;BME280;40758;54.038;11.684;2023-06-10T11:20:51;101784.00;;;26.76;36.67
7297;BME280;40758;54.038;11.684;2023-06-10T11:23:29;101780.69;;;26.74;37.80
7297;BME280;40758;54.038;11.684;2023-06-10T11:33:55;101776.22;;;27.06;37.06
7297;BME280;40758;54.038;11.684;2023-06-10T11:36:23;101776.19;;;26.92;38.17
7297;BME280;40758;54.038;11.684;2023-06-10T11:38:54;101775.38;;;27.05;38.83
7297;BME280;40758;54.038;11.684;2023-06-10T11:41:23;101771.41;;;27.25;39.06
7297;BME280;40758;54.038;11.684;2023-06-10T11:43:52;101769.53;;;27.76;39.44
7297;BME280;40758;54.038;11.684;2023-06-10T11:46:20;101762.59;;;27.87;38.60
7297;BME280;40758;54.038;11.684;2023-06-10T11:48:51;101768.91;;;27.79;37.89
7297;BME280;40758;54.038;11.684;2023-06-10T11:51:18;101767.34;;;27.87;37.06
7297;BME280;40758;54.038;11.684;2023-06-10T11:53:46;101761.97;;;27.90;39.04
7297;BME280;40758;54.038;11.684;2023-06-10T11:56:19;101756.28;;;28.18;39.46
7297;BME280;40758;54.038;11.684;2023-06-10T11:58:52;101762.59;;;28.46;39.01
7297;BME280;40758;54.038;11.684;2023-06-10T12:01:20;101773.19;;;28.35;37.70
7297;BME280;40758;54.038;11.684;2023-06-10T12:03:58;101768.53;;;28.75;39.28
7297;BME280;40758;54.038;11.684;2023-06-10T12:06:25;101772.72;;;28.86;38.53
7297;BME280;40758;54.038;11.684;2023-06-10T12:08:53;101770.19;;;28.99;37.95
7297;BME280;40758;54.038;11.684;2023-06-10T12:11:33;101765.44;;;28.99;37.29
7297;BME280;40758;54.038;11.684;2023-06-10T12:14:00;101764.25;;;28.47;36.54
7297;BME280;40758;54.038;11.684;2023-06-10T12:16:27;101765.47;;;28.32;37.89
7297;BME280;40758;54.038;11.684;2023-06-10T12:19:01;101761.22;;;28.34;37.81
7297;BME280;40758;54.038;11.684;2023-06-10T12:21:28;101765.69;;;28.89;37.12
7297;BME280;40758;54.038;11.684;2023-06-10T12:24:09;101766.50;;;28.89;36.45
7297;BME280;40758;54.038;11.684;2023-06-10T12:26:40;101768.13;;;28.82;36.24
7297;BME280;40758;54.038;11.684;2023-06-10T12:29:21;101763.28;;;28.74;36.06
7297;BME280;40758;54.038;11.684;2023-06-10T12:32:07;101752.56;;;28.67;36.95
7297;BME280;40758;54.038;11.684;2023-06-10T12:34:40;101764.09;;;28.74;37.29
7297;BME280;40758;54.038;11.684;2023-06-10T12:37:12;101759.00;;;28.99;37.78
7297;BME280;40758;54.038;11.684;2023-06-10T12:39:51;101753.00;;;29.14;35.87
7297;BME280;40758;54.038;11.684;2023-06-10T12:42:22;101750.66;;;28.76;36.40
7297;BME280;40758;54.038;11.684;2023-06-10T12:44:53;101751.09;;;28.70;36.14
7297;BME280;40758;54.038;11.684;2023-06-10T12:47:29;101749.22;;;28.56;35.94
7297;BME280;40758;54.038;11.684;2023-06-10T12:49:59;101748.97;;;28.44;37.08
7297;BME280;40758;54.038;11.684;2023-06-10T12:52:25;101755.69;;;28.43;38.42
7297;BME280;40758;54.038;11.684;2023-06-10T12:54:55;101740.41;;;28.04;38.03
7297;BME280;40758;54.038;11.684;2023-06-10T12:57:22;101748.28;;;28.39;38.63
7297;BME280;40758;54.038;11.684;2023-06-10T12:59:49;101752.22;;;28.01;37.41
7297;BME280;40758;54.038;11.684;2023-06-10T13:02:19;101747.63;;;28.05;37.57
7297;BME280;40758;54.038;11.684;2023-06-10T13:04:47;101748.19;;;27.94;37.25
7297;BME280;40758;54.038;11.684;2023-06-10T13:07:15;101746.06;;;27.91;37.96
7297;BME280;40758;54.038;11.684;2023-06-10T13:09:42;101738.53;;;27.77;38.57
7297;BME280;40758;54.038;11.684;2023-06-10T13:12:09;101740.16;;;27.65;39.24
7297;BME280;40758;54.038;11.684;2023-06-10T13:14:42;101747.22;;;27.62;38.36
7297;BME280;40758;54.038;11.684;2023-06-10T13:17:09;101736.09;;;27.98;38.03